sensor_id;sensor_type;location;lat;lon;timestamp;P1;durP1;ratioP1;P2;durP2;ratioP2
44068;SDS011;29738;51.234;5.484;2022-12-29T00:01:39;5.45;;;2.35;;
44068;SDS011;29738;51.234;5.484;2022-12-29T00:04:05;4.85;;;2.15;;
44068;SDS011;29738;51.234;5.484;2022-12-29T00:06:31;5.43;;;2.40;;
44068;SDS011;29738;51.234;5.484;2022-12-29T00:08:57;4.93;;;2.38;;
44068;SDS011;29738;51.234;5.484;2022-12-29T00:11:24;5.82;;;2.17;;
44068;SDS011;29738;51.234;5.484;2022-12-29T00:13:51;5.75;;;2.72;;
44068;SDS011;29738;51.234;5.484;2022-12-29T00:16:37;5.50;;;1.98;;
44068;SDS011;29738;51.234;5.484;2022-12-29T00:19:05;6.07;;;2.20;;
44068;SDS011;29738;51.234;5.484;2022-12-29T00:21:31;4.47;;;1.95;;
44068;SDS011;29738;51.234;5.484;2022-12-29T00:24:20;2.67;;;1.38;;
44068;SDS011;29738;51.234;5.484;2022-12-29T00:29:45;3.85;;;1.67;;
44068;SDS011;29738;51.234;5.484;2022-12-29T00:32:30;3.75;;;1.65;;
44068;SDS011;29738;51.234;5.484;2022-12-29T00:35:18;4.10;;;1.60;;
44068;SDS011;29738;51.234;5.484;2022-12-29T00:37:55;4.65;;;1.55;;
44068;SDS011;29738;51.234;5.484;2022-12-29T00:40:42;3.50;;;1.55;;
44068;SDS011;29738;51.234;5.484;2022-12-29T00:43:27;4.13;;;1.55;;
44068;SDS011;29738;51.234;5.484;2022-12-29T00:46:11;2.92;;;1.30;;
44068;SDS011;29738;51.234;5.484;2022-12-29T00:48:37;2.92;;;1.13;;
44068;SDS011;29738;51.234;5.484;2022-12-29T00:51:21;3.05;;;1.30;;
44068;SDS011;29738;51.234;5.484;2022-12-29T00:53:47;3.85;;;1.50;;
44068;SDS011;29738;51.234;5.484;2022-12-29T00:56:13;3.25;;;1.35;;
44068;SDS011;29738;51.234;5.484;2022-12-29T00:58:38;6.35;;;1.40;;
44068;SDS011;29738;51.234;5.484;2022-12-29T01:01:05;2.70;;;1.20;;
44068;SDS011;29738;51.234;5.484;2022-12-29T01:03:32;3.63;;;1.20;;
44068;SDS011;29738;51.234;5.484;2022-12-29T01:06:03;2.72;;;0.90;;
44068;SDS011;29738;51.234;5.484;2022-12-29T01:08:31;2.47;;;0.90;;
44068;SDS011;29738;51.234;5.484;2022-12-29T01:13:26;2.35;;;1.00;;
44068;SDS011;29738;51.234;5.484;2022-12-29T01:15:55;4.07;;;1.20;;
44068;SDS011;29738;51.234;5.484;2022-12-29T01:18:21;2.83;;;1.00;;
44068;SDS011;29738;51.234;5.484;2022-12-29T01:20:47;4.22;;;1.10;;
44068;SDS011;29738;51.234;5.484;2022-12-29T01:23:13;3.88;;;1.00;;
44068;SDS011;29738;51.234;5.484;2022-12-29T01:25:39;5.05;;;1.52;;
44068;SDS011;29738;51.234;5.484;2022-12-29T01:28:05;2.40;;;0.90;;
44068;SDS011;29738;51.234;5.484;2022-12-29T01:30:33;1.67;;;0.77;;
44068;SDS011;29738;51.234;5.484;2022-12-29T01:32:59;2.80;;;0.82;;
44068;SDS011;29738;51.234;5.484;2022-12-29T01:35:25;2.47;;;0.98;;
44068;SDS011;29738;51.234;5.484;2022-12-29T01:37:51;3.95;;;1.00;;
44068;SDS011;29738;51.234;5.484;2022-12-29T01:40:16;2.55;;;0.90;;
44068;SDS011;29738;51.234;5.484;2022-12-29T01:42:42;4.20;;;1.20;;
44068;SDS011;29738;51.234;5.484;2022-12-29T01:45:08;2.53;;;0.90;;
44068;SDS011;29738;51.234;5.484;2022-12-29T01:47:57;3.35;;;0.85;;
44068;SDS011;29738;51.234;5.484;2022-12-29T01:53:15;1.90;;;0.80;;
44068;SDS011;29738;51.234;5.484;2022-12-29T01:55:47;4.05;;;1.15;;
44068;SDS011;29738;51.234;5.484;2022-12-29T01:58:15;3.63;;;1.00;;
44068;SDS011;29738;51.234;5.484;2022-12-29T02:00:44;2.13;;;1.02;;
44068;SDS011;29738;51.234;5.484;2022-12-29T02:03:09;2.83;;;0.90;;
44068;SDS011;29738;51.234;5.484;2022-12-29T02:05:38;4.57;;;1.45;;
44068;SDS011;29738;51.234;5.484;2022-12-29T02:08:08;4.40;;;1.10;;
44068;SDS011;29738;51.234;5.484;2022-12-29T02:10:36;2.70;;;1.55;;
44068;SDS011;29738;51.234;5.484;2022-12-29T02:13:02;3.83;;;1.13;;
44068;SDS011;29738;51.234;5.484;2022-12-29T02:16:16;4.13;;;1.00;;
44068;SDS011;29738;51.234;5.484;2022-12-29T02:24:23;3.45;;;1.10;;
44068;SDS011;29738;51.234;5.484;2022-12-29T02:30:08;2.67;;;1.00;;
44068;SDS011;29738;51.234;5.484;2022-12-29T02:40:53;2.58;;;1.02;;
44068;SDS011;29738;51.234;5.484;2022-12-29T02:44:34;3.17;;;1.20;;
44068;SDS011;29738;51.234;5.484;2022-12-29T02:50:03;2.63;;;1.08;;
44068;SDS011;29738;51.234;5.484;2022-12-29T02:52:50;2.20;;;1.00;;
44068;SDS011;29738;51.234;5.484;2022-12-29T02:55:23;5.00;;;1.10;;
44068;SDS011;29738;51.234;5.484;2022-12-29T02:57:49;2.53;;;0.80;;
44068;SDS011;29738;51.234;5.484;2022-12-29T03:06:22;1.23;;;0.70;;
44068;SDS011;29738;51.234;5.484;2022-12-29T03:11:43;2.00;;;0.80;;
44068;SDS011;29738;51.234;5.484;2022-12-29T03:14:49;2.58;;;0.68;;
44068;SDS011;29738;51.234;5.484;2022-12-29T03:17:51;4.95;;;0.88;;
44068;SDS011;29738;51.234;5.484;2022-12-29T03:20:38;1.77;;;0.70;;
44068;SDS011;29738;51.234;5.484;2022-12-29T03:23:17;3.53;;;0.70;;
44068;SDS011;29738;51.234;5.484;2022-12-29T03:25:46;3.58;;;1.17;;
44068;SDS011;29738;51.234;5.484;2022-12-29T03:28:25;1.85;;;0.70;;
44068;SDS011;29738;51.234;5.484;2022-12-29T03:30:54;1.98;;;0.60;;
44068;SDS011;29738;51.234;5.484;2022-12-29T03:33:23;2.22;;;0.60;;
44068;SDS011;29738;51.234;5.484;2022-12-29T03:35:53;1.75;;;0.70;;
44068;SDS011;29738;51.234;5.484;2022-12-29T03:38:25;2.60;;;0.73;;
44068;SDS011;29738;51.234;5.484;2022-12-29T03:41:10;3.40;;;0.52;;
44068;SDS011;29738;51.234;5.484;2022-12-29T03:43:39;0.73;;;0.40;;
44068;SDS011;29738;51.234;5.484;2022-12-29T03:46:05;1.27;;;0.55;;
44068;SDS011;29738;51.234;5.484;2022-12-29T03:48:31;1.15;;;0.43;;
44068;SDS011;29738;51.234;5.484;2022-12-29T03:50:58;0.57;;;0.43;;
44068;SDS011;29738;51.234;5.484;2022-12-29T03:53:23;1.58;;;0.60;;
44068;SDS011;29738;51.234;5.484;2022-12-29T03:55:50;1.67;;;0.60;;
44068;SDS011;29738;51.234;5.484;2022-12-29T03:58:15;1.13;;;0.52;;
44068;SDS011;29738;51.234;5.484;2022-12-29T04:00:41;3.40;;;0.60;;
44068;SDS011;29738;51.234;5.484;2022-12-29T04:03:07;1.10;;;0.45;;
44068;SDS011;29738;51.234;5.484;2022-12-29T04:05:33;3.03;;;0.80;;
44068;SDS011;29738;51.234;5.484;2022-12-29T04:07:58;2.30;;;0.70;;
44068;SDS011;29738;51.234;5.484;2022-12-29T04:10:25;2.22;;;0.70;;
44068;SDS011;29738;51.234;5.484;2022-12-29T04:12:50;1.30;;;0.52;;
44068;SDS011;29738;51.234;5.484;2022-12-29T04:15:16;2.20;;;0.70;;
44068;SDS011;29738;51.234;5.484;2022-12-29T04:17:42;3.33;;;1.00;;
44068;SDS011;29738;51.234;5.484;2022-12-29T04:20:08;1.20;;;0.60;;
44068;SDS011;29738;51.234;5.484;2022-12-29T04:23:02;1.15;;;0.50;;
44068;SDS011;29738;51.234;5.484;2022-12-29T04:25:29;1.80;;;0.50;;
44068;SDS011;29738;51.234;5.484;2022-12-29T04:27:56;0.82;;;0.50;;
44068;SDS011;29738;51.234;5.484;2022-12-29T04:30:22;2.92;;;0.50;;
44068;SDS011;29738;51.234;5.484;2022-12-29T04:32:48;1.58;;;0.70;;
44068;SDS011;29738;51.234;5.484;2022-12-29T04:35:13;1.48;;;0.60;;
44068;SDS011;29738;51.234;5.484;2022-12-29T04:37:39;1.60;;;0.50;;
44068;SDS011;29738;51.234;5.484;2022-12-29T04:40:05;2.25;;;0.60;;
44068;SDS011;29738;51.234;5.484;2022-12-29T04:42:31;0.80;;;0.50;;
44068;SDS011;29738;51.234;5.484;2022-12-29T04:44:57;1.50;;;0.60;;
44068;SDS011;29738;51.234;5.484;2022-12-29T04:47:23;1.48;;;0.70;;
44068;SDS011;29738;51.234;5.484;2022-12-29T04:49:48;4.88;;;0.98;;
44068;SDS011;29738;51.234;5.484;2022-12-29T04:52:14;2.30;;;0.55;;
44068;SDS011;29738;51.234;5.484;2022-12-29T04:54:40;1.05;;;0.60;;
44068;SDS011;29738;51.234;5.484;2022-12-29T04:57:06;3.65;;;1.10;;
44068;SDS011;29738;51.234;5.484;2022-12-29T04:59:31;2.08;;;0.85;;
44068;SDS011;29738;51.234;5.484;2022-12-29T05:01:57;2.42;;;0.63;;
44068;SDS011;29738;51.234;5.484;2022-12-29T05:04:23;2.08;;;0.70;;
44068;SDS011;29738;51.234;5.484;2022-12-29T05:06:48;1.95;;;0.68;;
44068;SDS011;29738;51.234;5.484;2022-12-29T05:09:14;2.30;;;1.13;;
44068;SDS011;29738;51.234;5.484;2022-12-29T05:11:40;1.98;;;0.70;;
44068;SDS011;29738;51.234;5.484;2022-12-29T05:14:06;1.42;;;0.60;;
44068;SDS011;29738;51.234;5.484;2022-12-29T05:16:31;4.28;;;1.00;;
44068;SDS011;29738;51.234;5.484;2022-12-29T05:18:57;3.65;;;0.98;;
44068;SDS011;29738;51.234;5.484;2022-12-29T05:21:23;5.78;;;1.10;;
44068;SDS011;29738;51.234;5.484;2022-12-29T05:23:48;2.83;;;0.85;;
44068;SDS011;29738;51.234;5.484;2022-12-29T05:26:14;4.53;;;0.70;;
44068;SDS011;29738;51.234;5.484;2022-12-29T05:28:40;3.80;;;0.95;;
44068;SDS011;29738;51.234;5.484;2022-12-29T05:31:06;4.43;;;1.02;;
44068;SDS011;29738;51.234;5.484;2022-12-29T05:33:34;4.93;;;1.05;;
44068;SDS011;29738;51.234;5.484;2022-12-29T05:36:04;3.10;;;0.82;;
44068;SDS011;29738;51.234;5.484;2022-12-29T05:38:31;3.35;;;0.80;;
44068;SDS011;29738;51.234;5.484;2022-12-29T05:40:56;2.63;;;1.05;;
44068;SDS011;29738;51.234;5.484;2022-12-29T05:43:22;1.58;;;0.68;;
44068;SDS011;29738;51.234;5.484;2022-12-29T05:45:48;3.15;;;0.80;;
44068;SDS011;29738;51.234;5.484;2022-12-29T05:48:14;4.65;;;0.80;;
44068;SDS011;29738;51.234;5.484;2022-12-29T05:50:41;2.28;;;0.90;;
44068;SDS011;29738;51.234;5.484;2022-12-29T05:53:06;2.03;;;0.77;;
44068;SDS011;29738;51.234;5.484;2022-12-29T05:55:32;5.88;;;0.77;;
44068;SDS011;29738;51.234;5.484;2022-12-29T05:57:59;2.38;;;0.70;;
44068;SDS011;29738;51.234;5.484;2022-12-29T06:00:27;2.65;;;0.98;;
44068;SDS011;29738;51.234;5.484;2022-12-29T06:02:53;2.72;;;0.82;;
44068;SDS011;29738;51.234;5.484;2022-12-29T06:05:19;1.48;;;0.68;;
44068;SDS011;29738;51.234;5.484;2022-12-29T06:07:45;3.03;;;0.70;;
44068;SDS011;29738;51.234;5.484;2022-12-29T06:10:10;1.73;;;0.63;;
44068;SDS011;29738;51.234;5.484;2022-12-29T06:12:36;2.83;;;0.63;;
44068;SDS011;29738;51.234;5.484;2022-12-29T06:15:02;2.13;;;0.88;;
44068;SDS011;29738;51.234;5.484;2022-12-29T06:17:28;3.95;;;1.10;;
44068;SDS011;29738;51.234;5.484;2022-12-29T06:19:54;2.35;;;0.98;;
44068;SDS011;29738;51.234;5.484;2022-12-29T06:22:19;2.60;;;0.80;;
44068;SDS011;29738;51.234;5.484;2022-12-29T06:24:45;2.95;;;0.90;;
44068;SDS011;29738;51.234;5.484;2022-12-29T06:27:13;2.65;;;1.00;;
44068;SDS011;29738;51.234;5.484;2022-12-29T06:29:39;2.65;;;1.15;;
44068;SDS011;29738;51.234;5.484;2022-12-29T06:32:05;3.38;;;0.85;;
44068;SDS011;29738;51.234;5.484;2022-12-29T06:34:31;4.63;;;1.67;;
44068;SDS011;29738;51.234;5.484;2022-12-29T06:36:57;4.60;;;0.85;;
44068;SDS011;29738;51.234;5.484;2022-12-29T06:39:23;4.80;;;1.35;;
44068;SDS011;29738;51.234;5.484;2022-12-29T06:41:51;3.13;;;1.40;;
44068;SDS011;29738;51.234;5.484;2022-12-29T06:44:18;5.85;;;1.10;;
44068;SDS011;29738;51.234;5.484;2022-12-29T06:46:43;4.07;;;1.33;;
44068;SDS011;29738;51.234;5.484;2022-12-29T06:49:09;4.53;;;1.60;;
44068;SDS011;29738;51.234;5.484;2022-12-29T06:51:35;8.07;;;2.45;;
44068;SDS011;29738;51.234;5.484;2022-12-29T06:54:01;5.32;;;1.83;;
44068;SDS011;29738;51.234;5.484;2022-12-29T06:56:26;13.05;;;7.38;;
44068;SDS011;29738;51.234;5.484;2022-12-29T06:58:52;3.33;;;1.17;;
44068;SDS011;29738;51.234;5.484;2022-12-29T07:01:18;5.53;;;1.17;;
44068;SDS011;29738;51.234;5.484;2022-12-29T07:03:44;4.60;;;1.58;;
44068;SDS011;29738;51.234;5.484;2022-12-29T07:06:09;5.95;;;1.10;;
44068;SDS011;29738;51.234;5.484;2022-12-29T07:08:35;6.68;;;1.33;;
44068;SDS011;29738;51.234;5.484;2022-12-29T07:11:03;3.97;;;1.00;;
44068;SDS011;29738;51.234;5.484;2022-12-29T07:13:29;2.67;;;1.13;;
44068;SDS011;29738;51.234;5.484;2022-12-29T07:15:55;5.32;;;1.38;;
44068;SDS011;29738;51.234;5.484;2022-12-29T07:18:20;5.57;;;1.58;;
44068;SDS011;29738;51.234;5.484;2022-12-29T07:20:46;6.93;;;1.73;;
44068;SDS011;29738;51.234;5.484;2022-12-29T07:23:12;4.40;;;1.30;;
44068;SDS011;29738;51.234;5.484;2022-12-29T07:25:38;5.35;;;1.52;;
44068;SDS011;29738;51.234;5.484;2022-12-29T07:28:05;4.32;;;1.33;;
44068;SDS011;29738;51.234;5.484;2022-12-29T07:30:31;5.88;;;1.08;;
44068;SDS011;29738;51.234;5.484;2022-12-29T07:32:57;3.55;;;1.38;;
44068;SDS011;29738;51.234;5.484;2022-12-29T07:35:23;9.63;;;2.20;;
44068;SDS011;29738;51.234;5.484;2022-12-29T07:37:48;7.55;;;2.45;;
44068;SDS011;29738;51.234;5.484;2022-12-29T07:40:14;10.55;;;2.67;;
44068;SDS011;29738;51.234;5.484;2022-12-29T07:42:40;6.70;;;2.85;;
44068;SDS011;29738;51.234;5.484;2022-12-29T07:45:06;4.93;;;2.28;;
44068;SDS011;29738;51.234;5.484;2022-12-29T07:47:32;9.02;;;2.45;;
44068;SDS011;29738;51.234;5.484;2022-12-29T07:49:58;7.95;;;2.15;;
44068;SDS011;29738;51.234;5.484;2022-12-29T07:52:23;9.95;;;3.00;;
44068;SDS011;29738;51.234;5.484;2022-12-29T07:54:49;6.45;;;2.33;;
44068;SDS011;29738;51.234;5.484;2022-12-29T07:57:15;5.55;;;1.30;;
44068;SDS011;29738;51.234;5.484;2022-12-29T07:59:40;6.07;;;2.40;;
44068;SDS011;29738;51.234;5.484;2022-12-29T08:02:08;6.10;;;2.92;;
44068;SDS011;29738;51.234;5.484;2022-12-29T08:04:36;6.30;;;1.30;;
44068;SDS011;29738;51.234;5.484;2022-12-29T08:07:02;7.88;;;2.70;;
44068;SDS011;29738;51.234;5.484;2022-12-29T08:09:27;4.65;;;1.83;;
44068;SDS011;29738;51.234;5.484;2022-12-29T08:11:53;7.97;;;2.58;;
44068;SDS011;29738;51.234;5.484;2022-12-29T08:14:19;5.95;;;1.23;;
44068;SDS011;29738;51.234;5.484;2022-12-29T08:16:45;6.93;;;1.70;;
44068;SDS011;29738;51.234;5.484;2022-12-29T08:19:11;5.55;;;1.50;;
44068;SDS011;29738;51.234;5.484;2022-12-29T08:21:37;5.22;;;1.33;;
44068;SDS011;29738;51.234;5.484;2022-12-29T08:24:03;30.92;;;12.48;;
44068;SDS011;29738;51.234;5.484;2022-12-29T08:26:29;51.88;;;23.95;;
44068;SDS011;29738;51.234;5.484;2022-12-29T08:28:55;44.15;;;22.05;;
44068;SDS011;29738;51.234;5.484;2022-12-29T08:31:21;8.13;;;2.92;;
44068;SDS011;29738;51.234;5.484;2022-12-29T08:33:47;18.10;;;9.25;;
44068;SDS011;29738;51.234;5.484;2022-12-29T08:36:13;20.58;;;12.95;;
44068;SDS011;29738;51.234;5.484;2022-12-29T08:38:39;9.23;;;2.58;;
44068;SDS011;29738;51.234;5.484;2022-12-29T08:41:05;11.95;;;5.28;;
44068;SDS011;29738;51.234;5.484;2022-12-29T08:43:31;8.75;;;2.08;;
44068;SDS011;29738;51.234;5.484;2022-12-29T08:45:57;12.43;;;4.32;;
44068;SDS011;29738;51.234;5.484;2022-12-29T08:48:24;6.40;;;1.85;;
44068;SDS011;29738;51.234;5.484;2022-12-29T08:50:50;7.05;;;1.42;;
44068;SDS011;29738;51.234;5.484;2022-12-29T08:53:16;7.25;;;1.45;;
44068;SDS011;29738;51.234;5.484;2022-12-29T08:55:47;11.18;;;1.88;;
44068;SDS011;29738;51.234;5.484;2022-12-29T08:58:19;4.50;;;1.42;;
44068;SDS011;29738;51.234;5.484;2022-12-29T09:00:45;8.23;;;1.25;;
44068;SDS011;29738;51.234;5.484;2022-12-29T09:03:11;6.65;;;1.90;;
44068;SDS011;29738;51.234;5.484;2022-12-29T09:05:36;10.48;;;1.73;;
44068;SDS011;29738;51.234;5.484;2022-12-29T09:08:02;5.57;;;1.65;;
44068;SDS011;29738;51.234;5.484;2022-12-29T09:10:29;5.05;;;1.33;;
44068;SDS011;29738;51.234;5.484;2022-12-29T09:12:55;4.28;;;1.48;;
44068;SDS011;29738;51.234;5.484;2022-12-29T09:15:21;7.53;;;1.30;;
44068;SDS011;29738;51.234;5.484;2022-12-29T09:17:46;7.45;;;1.48;;
44068;SDS011;29738;51.234;5.484;2022-12-29T09:20:13;9.10;;;1.67;;
44068;SDS011;29738;51.234;5.484;2022-12-29T09:22:40;5.65;;;1.52;;
44068;SDS011;29738;51.234;5.484;2022-12-29T09:25:06;24.25;;;9.85;;
44068;SDS011;29738;51.234;5.484;2022-12-29T09:27:34;72.15;;;27.33;;
44068;SDS011;29738;51.234;5.484;2022-12-29T09:30:00;6.80;;;2.88;;
44068;SDS011;29738;51.234;5.484;2022-12-29T09:32:26;8.52;;;3.50;;
44068;SDS011;29738;51.234;5.484;2022-12-29T09:34:52;10.77;;;4.00;;
44068;SDS011;29738;51.234;5.484;2022-12-29T09:37:17;9.00;;;2.35;;
44068;SDS011;29738;51.234;5.484;2022-12-29T09:39:43;6.05;;;1.80;;
44068;SDS011;29738;51.234;5.484;2022-12-29T09:42:18;8.57;;;2.30;;
44068;SDS011;29738;51.234;5.484;2022-12-29T09:44:55;9.65;;;2.92;;
44068;SDS011;29738;51.234;5.484;2022-12-29T09:47:38;10.77;;;1.85;;
44068;SDS011;29738;51.234;5.484;2022-12-29T09:50:28;23.40;;;6.57;;
44068;SDS011;29738;51.234;5.484;2022-12-29T09:53:10;11.25;;;3.60;;
44068;SDS011;29738;51.234;5.484;2022-12-29T09:55:47;6.35;;;1.90;;
44068;SDS011;29738;51.234;5.484;2022-12-29T10:01:02;9.30;;;2.25;;
44068;SDS011;29738;51.234;5.484;2022-12-29T10:06:24;8.77;;;1.67;;
44068;SDS011;29738;51.234;5.484;2022-12-29T10:11:52;5.18;;;1.20;;
44068;SDS011;29738;51.234;5.484;2022-12-29T10:17:18;66.38;;;23.13;;
44068;SDS011;29738;51.234;5.484;2022-12-29T10:23:01;68.63;;;28.95;;
44068;SDS011;29738;51.234;5.484;2022-12-29T10:25:31;30.85;;;10.25;;
44068;SDS011;29738;51.234;5.484;2022-12-29T10:28:03;66.70;;;22.25;;
44068;SDS011;29738;51.234;5.484;2022-12-29T10:30:35;40.95;;;9.95;;
44068;SDS011;29738;51.234;5.484;2022-12-29T10:33:02;14.77;;;4.38;;
44068;SDS011;29738;51.234;5.484;2022-12-29T10:35:36;20.05;;;9.88;;
44068;SDS011;29738;51.234;5.484;2022-12-29T10:38:25;9.88;;;5.00;;
44068;SDS011;29738;51.234;5.484;2022-12-29T10:41:15;13.48;;;4.20;;
44068;SDS011;29738;51.234;5.484;2022-12-29T10:43:51;12.65;;;1.90;;
44068;SDS011;29738;51.234;5.484;2022-12-29T10:46:20;9.07;;;2.20;;
44068;SDS011;29738;51.234;5.484;2022-12-29T10:48:49;11.90;;;3.15;;
44068;SDS011;29738;51.234;5.484;2022-12-29T10:51:18;11.07;;;3.70;;
44068;SDS011;29738;51.234;5.484;2022-12-29T10:54:14;9.75;;;3.05;;
44068;SDS011;29738;51.234;5.484;2022-12-29T10:56:42;19.98;;;2.58;;
44068;SDS011;29738;51.234;5.484;2022-12-29T10:59:25;10.75;;;2.53;;
44068;SDS011;29738;51.234;5.484;2022-12-29T11:04:43;8.15;;;2.03;;
44068;SDS011;29738;51.234;5.484;2022-12-29T11:07:27;13.32;;;2.75;;
44068;SDS011;29738;51.234;5.484;2022-12-29T11:09:55;7.25;;;2.10;;
44068;SDS011;29738;51.234;5.484;2022-12-29T11:12:40;31.10;;;12.13;;
44068;SDS011;29738;51.234;5.484;2022-12-29T11:17:48;63.25;;;29.73;;
44068;SDS011;29738;51.234;5.484;2022-12-29T11:20:28;78.07;;;33.70;;
44068;SDS011;29738;51.234;5.484;2022-12-29T11:28:39;45.20;;;24.48;;
44068;SDS011;29738;51.234;5.484;2022-12-29T11:31:07;14.05;;;6.15;;
44068;SDS011;29738;51.234;5.484;2022-12-29T11:33:34;10.45;;;3.05;;
44068;SDS011;29738;51.234;5.484;2022-12-29T11:38:40;6.60;;;2.33;;
44068;SDS011;29738;51.234;5.484;2022-12-29T11:41:18;23.42;;;4.00;;
44068;SDS011;29738;51.234;5.484;2022-12-29T11:43:47;12.32;;;3.33;;
44068;SDS011;29738;51.234;5.484;2022-12-29T11:46:17;8.73;;;3.00;;
44068;SDS011;29738;51.234;5.484;2022-12-29T11:48:50;15.77;;;6.43;;
44068;SDS011;29738;51.234;5.484;2022-12-29T11:51:29;15.00;;;2.90;;
44068;SDS011;29738;51.234;5.484;2022-12-29T11:56:33;6.43;;;2.55;;
44068;SDS011;29738;51.234;5.484;2022-12-29T12:01:59;16.50;;;6.93;;
44068;SDS011;29738;51.234;5.484;2022-12-29T12:04:34;13.65;;;3.22;;
44068;SDS011;29738;51.234;5.484;2022-12-29T12:07:12;10.90;;;3.17;;
44068;SDS011;29738;51.234;5.484;2022-12-29T12:09:45;18.65;;;4.50;;
44068;SDS011;29738;51.234;5.484;2022-12-29T12:15:13;12.93;;;4.18;;
44068;SDS011;29738;51.234;5.484;2022-12-29T12:20:49;10.98;;;2.17;;
44068;SDS011;29738;51.234;5.484;2022-12-29T12:34:25;6.80;;;2.20;;
44068;SDS011;29738;51.234;5.484;2022-12-29T12:48:28;14.60;;;5.15;;
44068;SDS011;29738;51.234;5.484;2022-12-29T12:57:17;15.90;;;2.95;;
44068;SDS011;29738;51.234;5.484;2022-12-29T13:00:12;14.05;;;6.07;;
44068;SDS011;29738;51.234;5.484;2022-12-29T13:11:26;17.75;;;8.98;;
44068;SDS011;29738;51.234;5.484;2022-12-29T13:16:48;7.00;;;2.75;;
44068;SDS011;29738;51.234;5.484;2022-12-29T13:25:21;14.45;;;2.47;;
44068;SDS011;29738;51.234;5.484;2022-12-29T13:30:57;13.57;;;2.92;;
44068;SDS011;29738;51.234;5.484;2022-12-29T13:36:34;10.20;;;2.88;;
44068;SDS011;29738;51.234;5.484;2022-12-29T13:39:16;8.90;;;2.78;;
44068;SDS011;29738;51.234;5.484;2022-12-29T13:42:02;15.38;;;3.17;;
44068;SDS011;29738;51.234;5.484;2022-12-29T13:46:55;33.38;;;7.72;;
44068;SDS011;29738;51.234;5.484;2022-12-29T13:49:25;16.25;;;3.83;;
44068;SDS011;29738;51.234;5.484;2022-12-29T13:51:56;19.08;;;5.35;;
44068;SDS011;29738;51.234;5.484;2022-12-29T13:54:29;30.98;;;8.23;;
44068;SDS011;29738;51.234;5.484;2022-12-29T13:57:42;16.70;;;4.60;;
44068;SDS011;29738;51.234;5.484;2022-12-29T14:00:17;15.48;;;3.85;;
44068;SDS011;29738;51.234;5.484;2022-12-29T14:07:45;11.82;;;3.10;;
44068;SDS011;29738;51.234;5.484;2022-12-29T14:13:13;10.65;;;2.85;;
44068;SDS011;29738;51.234;5.484;2022-12-29T14:15:42;14.57;;;2.58;;
44068;SDS011;29738;51.234;5.484;2022-12-29T14:20:35;11.93;;;1.98;;
44068;SDS011;29738;51.234;5.484;2022-12-29T14:28:39;8.23;;;2.60;;
44068;SDS011;29738;51.234;5.484;2022-12-29T14:33:40;15.57;;;3.85;;
44068;SDS011;29738;51.234;5.484;2022-12-29T14:36:36;12.63;;;3.03;;
44068;SDS011;29738;51.234;5.484;2022-12-29T14:39:34;7.97;;;2.15;;
44068;SDS011;29738;51.234;5.484;2022-12-29T14:42:03;6.97;;;1.60;;
44068;SDS011;29738;51.234;5.484;2022-12-29T14:44:31;9.57;;;2.25;;
44068;SDS011;29738;51.234;5.484;2022-12-29T14:46:58;14.45;;;2.45;;
44068;SDS011;29738;51.234;5.484;2022-12-29T14:49:31;9.18;;;3.13;;
44068;SDS011;29738;51.234;5.484;2022-12-29T14:52:06;10.55;;;2.55;;
44068;SDS011;29738;51.234;5.484;2022-12-29T14:54:43;15.13;;;2.85;;
44068;SDS011;29738;51.234;5.484;2022-12-29T14:57:17;6.88;;;1.92;;
44068;SDS011;29738;51.234;5.484;2022-12-29T14:59:57;9.73;;;2.10;;
44068;SDS011;29738;51.234;5.484;2022-12-29T15:02:39;5.13;;;1.60;;
44068;SDS011;29738;51.234;5.484;2022-12-29T15:05:26;10.40;;;2.78;;
44068;SDS011;29738;51.234;5.484;2022-12-29T15:07:56;10.05;;;2.20;;
44068;SDS011;29738;51.234;5.484;2022-12-29T15:10:22;10.90;;;2.28;;
44068;SDS011;29738;51.234;5.484;2022-12-29T15:12:54;8.60;;;1.85;;
44068;SDS011;29738;51.234;5.484;2022-12-29T15:15:27;9.60;;;1.67;;
44068;SDS011;29738;51.234;5.484;2022-12-29T15:17:55;14.77;;;2.70;;
44068;SDS011;29738;51.234;5.484;2022-12-29T15:22:58;8.43;;;2.67;;
44068;SDS011;29738;51.234;5.484;2022-12-29T15:25:27;12.25;;;2.63;;
44068;SDS011;29738;51.234;5.484;2022-12-29T15:27:55;13.75;;;2.63;;
44068;SDS011;29738;51.234;5.484;2022-12-29T15:30:25;11.20;;;3.05;;
44068;SDS011;29738;51.234;5.484;2022-12-29T15:32:54;6.15;;;1.75;;
44068;SDS011;29738;51.234;5.484;2022-12-29T15:37:54;5.40;;;1.45;;
44068;SDS011;29738;51.234;5.484;2022-12-29T15:40:24;8.13;;;1.77;;
44068;SDS011;29738;51.234;5.484;2022-12-29T15:45:50;8.32;;;2.33;;
44068;SDS011;29738;51.234;5.484;2022-12-29T15:48:20;7.15;;;2.10;;
44068;SDS011;29738;51.234;5.484;2022-12-29T15:50:48;11.30;;;2.47;;
44068;SDS011;29738;51.234;5.484;2022-12-29T15:53:19;3.55;;;1.40;;
44068;SDS011;29738;51.234;5.484;2022-12-29T15:56:01;8.02;;;2.60;;
44068;SDS011;29738;51.234;5.484;2022-12-29T15:58:39;8.93;;;2.50;;
44068;SDS011;29738;51.234;5.484;2022-12-29T16:01:16;11.48;;;2.80;;
44068;SDS011;29738;51.234;5.484;2022-12-29T16:03:52;11.15;;;3.58;;
44068;SDS011;29738;51.234;5.484;2022-12-29T16:11:46;9.10;;;2.15;;
44068;SDS011;29738;51.234;5.484;2022-12-29T16:14:22;7.75;;;2.03;;
44068;SDS011;29738;51.234;5.484;2022-12-29T16:17:00;7.00;;;1.77;;
44068;SDS011;29738;51.234;5.484;2022-12-29T16:19:35;7.60;;;2.03;;
44068;SDS011;29738;51.234;5.484;2022-12-29T16:22:09;5.20;;;1.25;;
44068;SDS011;29738;51.234;5.484;2022-12-29T16:24:38;6.32;;;1.95;;
44068;SDS011;29738;51.234;5.484;2022-12-29T16:29:49;13.98;;;2.28;;
44068;SDS011;29738;51.234;5.484;2022-12-29T16:32:23;7.80;;;1.98;;
44068;SDS011;29738;51.234;5.484;2022-12-29T16:35:09;6.72;;;1.58;;
44068;SDS011;29738;51.234;5.484;2022-12-29T16:37:42;6.20;;;1.35;;
44068;SDS011;29738;51.234;5.484;2022-12-29T16:42:56;7.60;;;2.00;;
44068;SDS011;29738;51.234;5.484;2022-12-29T16:50:51;22.95;;;6.30;;
44068;SDS011;29738;51.234;5.484;2022-12-29T16:53:26;23.42;;;7.07;;
44068;SDS011;29738;51.234;5.484;2022-12-29T16:55:55;13.25;;;5.90;;
44068;SDS011;29738;51.234;5.484;2022-12-29T16:58:25;17.40;;;8.77;;
44068;SDS011;29738;51.234;5.484;2022-12-29T17:00:57;8.85;;;2.92;;
44068;SDS011;29738;51.234;5.484;2022-12-29T17:03:27;10.50;;;3.72;;
44068;SDS011;29738;51.234;5.484;2022-12-29T17:05:58;9.20;;;5.03;;
44068;SDS011;29738;51.234;5.484;2022-12-29T17:08:24;17.13;;;3.95;;
44068;SDS011;29738;51.234;5.484;2022-12-29T17:10:51;15.40;;;7.07;;
44068;SDS011;29738;51.234;5.484;2022-12-29T17:13:53;10.63;;;3.92;;
44068;SDS011;29738;51.234;5.484;2022-12-29T17:16:19;11.60;;;3.70;;
44068;SDS011;29738;51.234;5.484;2022-12-29T17:18:44;11.93;;;4.70;;
44068;SDS011;29738;51.234;5.484;2022-12-29T17:21:10;9.95;;;3.33;;
44068;SDS011;29738;51.234;5.484;2022-12-29T17:23:37;8.38;;;2.92;;
44068;SDS011;29738;51.234;5.484;2022-12-29T17:26:03;15.93;;;5.32;;
44068;SDS011;29738;51.234;5.484;2022-12-29T17:28:29;20.42;;;7.43;;
44068;SDS011;29738;51.234;5.484;2022-12-29T17:31:00;11.63;;;3.08;;
44068;SDS011;29738;51.234;5.484;2022-12-29T17:33:27;15.95;;;4.28;;
44068;SDS011;29738;51.234;5.484;2022-12-29T17:35:59;16.40;;;5.32;;
44068;SDS011;29738;51.234;5.484;2022-12-29T17:38:27;20.77;;;6.97;;
44068;SDS011;29738;51.234;5.484;2022-12-29T17:40:55;28.90;;;8.40;;
44068;SDS011;29738;51.234;5.484;2022-12-29T17:43:21;18.80;;;7.03;;
44068;SDS011;29738;51.234;5.484;2022-12-29T17:45:52;17.70;;;6.13;;
44068;SDS011;29738;51.234;5.484;2022-12-29T17:48:19;26.10;;;10.20;;
44068;SDS011;29738;51.234;5.484;2022-12-29T17:50:46;20.83;;;7.57;;
44068;SDS011;29738;51.234;5.484;2022-12-29T17:53:15;34.05;;;11.27;;
44068;SDS011;29738;51.234;5.484;2022-12-29T17:55:46;32.60;;;10.93;;
44068;SDS011;29738;51.234;5.484;2022-12-29T17:58:16;24.88;;;8.18;;